Time;durP1;ratioP1;P1;durP2;ratioP2;P2;SDS_P1;SDS_P2;PMS_P1;PMS_P2;Temp;Humidity;BMP_temperature;BMP_pressure;BME280_temperature;BME280_humidity;BME280_pressure;Samples;Min_cycle;Max_cycle;Signal;HPM_P1;HPM_P2
2022/08/25 00:02:17;;;;;;;;;15.00;14.00;;;;;;;;4990721;28;46131;-75
2022/08/25 00:04:42;;;;;;;;;16.67;14.33;;;;;;;;4986896;28;45295;-75
2022/08/25 00:07:08;;;;;;;;;15.00;15.00;;;;;;;;4982726;28;45275;-75
2022/08/25 00:09:34;;;;;;;;;17.00;13.00;;;;;;;;4986630;27;45197;-75
2022/08/25 00:12:00;;;;;;;;;13.67;13.67;;;;;;;;4991840;27;45429;-75
2022/08/25 00:14:27;;;;;;;;;15.67;12.33;;;;;;;;4991716;27;45265;-75
2022/08/25 00:16:52;;;;;;;;;14.00;13.67;;;;;;;;4991339;27;45467;-75
2022/08/25 00:19:21;;;;;;;;;13.00;13.00;;;;;;;;4979861;28;45667;-76
2022/08/25 00:21:46;;;;;;;;;12.00;12.00;;;;;;;;4989495;27;47106;-75
2022/08/25 00:24:13;;;;;;;;;17.33;14.67;;;;;;;;4981158;27;45457;-75
2022/08/25 00:26:40;;;;;;;;;13.67;12.67;;;;;;;;4982940;27;45444;-75
2022/08/25 00:29:06;;;;;;;;;17.67;13.67;;;;;;;;4983178;27;45546;-75
2022/08/25 00:31:31;;;;;;;;;16.67;15.00;;;;;;;;4985338;28;46470;-75
2022/08/25 00:33:57;;;;;;;;;11.33;11.33;;;;;;;;4998625;27;45350;-75
2022/08/25 00:36:22;;;;;;;;;14.00;12.00;;;;;;;;4996333;27;45304;-75
2022/08/25 00:38:48;;;;;;;;;17.33;15.67;;;;;;;;4982722;28;45431;-75
2022/08/25 00:41:15;;;;;;;;;15.67;13.67;;;;;;;;4988523;28;45406;-75
2022/08/25 00:43:41;;;;;;;;;14.67;14.67;;;;;;;;4986542;28;45410;-75
2022/08/25 00:46:10;;;;;;;;;15.67;13.33;;;;;;;;4984182;27;45540;-75
2022/08/25 00:48:37;;;;;;;;;16.33;12.00;;;;;;;;4989179;27;45358;-75
2022/08/25 00:51:03;;;;;;;;;12.33;12.33;;;;;;;;4983880;28;46447;-75
2022/08/25 00:53:29;;;;;;;;;15.00;13.00;;;;;;;;4993746;27;45411;-75
2022/08/25 00:55:55;;;;;;;;;15.33;14.00;;;;;;;;4977183;27;45212;-75
2022/08/25 00:58:23;;;;;;;;;14.67;12.33;;;;;;;;4980546;27;45435;-75
2022/08/25 01:00:51;;;;;;;;;14.67;14.00;;;;;;;;4982522;27;45395;-75
2022/08/25 01:03:17;;;;;;;;;17.67;13.67;;;;;;;;4982770;28;45347;-75
2022/08/25 01:05:43;;;;;;;;;12.33;12.33;;;;;;;;4984280;27;45281;-75
2022/08/25 01:08:09;;;;;;;;;14.33;13.33;;;;;;;;4997460;27;45646;-75
2022/08/25 01:10:36;;;;;;;;;10.00;10.00;;;;;;;;4985596;27;45376;-75
2022/08/25 01:13:07;;;;;;;;;11.33;11.00;;;;;;;;4989677;27;45582;-75
2022/08/25 01:15:33;;;;;;;;;14.00;14.00;;;;;;;;4988160;27;45283;-75
2022/08/25 01:17:58;;;;;;;;;11.33;10.00;;;;;;;;4985828;27;45299;-75
2022/08/25 01:20:26;;;;;;;;;12.67;12.67;;;;;;;;4985448;27;45358;-75
2022/08/25 01:22:52;;;;;;;;;11.33;11.00;;;;;;;;4992813;27;45283;-75
2022/08/25 01:25:17;;;;;;;;;16.33;13.00;;;;;;;;4987725;27;45536;-75
2022/08/25 01:27:42;;;;;;;;;9.33;9.33;;;;;;;;4989893;27;45358;-75
2022/08/25 01:30:08;;;;;;;;;12.33;10.33;;;;;;;;4990114;28;45610;-75
2022/08/25 01:32:33;;;;;;;;;12.00;11.67;;;;;;;;4990116;28;45236;-75
2022/08/25 01:34:59;;;;;;;;;14.00;12.00;;;;;;;;5014357;27;45286;-75
2022/08/25 01:37:24;;;;;;;;;12.00;12.00;;;;;;;;4980606;28;45638;-75
2022/08/25 01:39:49;;;;;;;;;14.00;12.00;;;;;;;;4986378;27;46204;-75
2022/08/25 01:42:31;;;;;;;;;15.00;11.00;;;;;;;;4983833;27;45241;-75
2022/08/25 01:44:56;;;;;;;;;12.67;11.00;;;;;;;;4985409;27;45259;-75
2022/08/25 01:47:23;;;;;;;;;12.00;12.00;;;;;;;;4995597;27;45604;-75
2022/08/25 01:49:48;;;;;;;;;15.67;12.67;;;;;;;;4990344;27;47383;-75
2022/08/25 01:52:23;;;;;;;;;12.00;11.00;;;;;;;;4981648;27;45150;-75
2022/08/25 01:54:48;;;;;;;;;10.00;9.00;;;;;;;;4985484;27;45431;-75
2022/08/25 01:57:13;;;;;;;;;10.67;10.67;;;;;;;;4991310;27;45184;-75
2022/08/25 01:59:40;;;;;;;;;12.67;12.67;;;;;;;;4986503;27;45394;-75
2022/08/25 02:02:05;;;;;;;;;10.00;8.33;;;;;;;;4994971;27;45268;-75
2022/08/25 02:04:31;;;;;;;;;11.67;11.67;;;;;;;;4991551;28;45423;-75
2022/08/25 02:06:57;;;;;;;;;13.00;13.00;;;;;;;;4980629;28;45315;-75
2022/08/25 02:09:23;;;;;;;;;11.00;10.33;;;;;;;;4980603;27;45291;-75
2022/08/25 02:11:48;;;;;;;;;16.00;12.33;;;;;;;;4981422;27;45405;-75
2022/08/25 02:14:15;;;;;;;;;13.33;12.67;;;;;;;;4978647;28;45405;-75
2022/08/25 02:16:43;;;;;;;;;17.00;13.00;;;;;;;;5003182;27;46583;-75
2022/08/25 02:19:10;;;;;;;;;13.00;13.00;;;;;;;;4991019;27;45304;-75
2022/08/25 02:21:35;;;;;;;;;12.00;12.00;;;;;;;;4985339;28;45291;-75
2022/08/25 02:24:01;;;;;;;;;14.00;11.67;;;;;;;;4986165;27;45395;-75
2022/08/25 02:26:27;;;;;;;;;12.00;12.00;;;;;;;;4990349;27;45826;-76
2022/08/25 02:28:52;;;;;;;;;12.00;12.00;;;;;;;;4980946;28;45391;-75
2022/08/25 02:31:19;;;;;;;;;12.67;10.67;;;;;;;;4988158;28;45334;-75
2022/08/25 02:33:44;;;;;;;;;7.67;6.00;;;;;;;;4999040;27;45414;-76
2022/08/25 02:36:09;;;;;;;;;13.00;13.00;;;;;;;;5005527;27;45581;-75
2022/08/25 02:38:35;;;;;;;;;13.67;12.00;;;;;;;;4988697;27;46556;-75
2022/08/25 02:41:06;;;;;;;;;15.00;13.00;;;;;;;;4982174;28;45271;-75
2022/08/25 02:43:31;;;;;;;;;14.33;12.33;;;;;;;;4991981;27;45486;-75
2022/08/25 02:45:58;;;;;;;;;12.00;11.00;;;;;;;;4983276;28;45529;-75
2022/08/25 02:48:23;;;;;;;;;15.33;12.33;;;;;;;;4992375;28;47057;-75
2022/08/25 02:50:51;;;;;;;;;12.00;11.00;;;;;;;;4986651;27;45339;-75
2022/08/25 02:53:17;;;;;;;;;13.33;12.00;;;;;;;;4995576;27;45237;-75
2022/08/25 02:55:42;;;;;;;;;13.33;13.33;;;;;;;;4994049;27;45861;-75
2022/08/25 02:58:07;;;;;;;;;13.67;12.00;;;;;;;;4996690;27;45573;-75
2022/08/25 03:00:33;;;;;;;;;11.33;11.33;;;;;;;;4980533;28;45316;-75
2022/08/25 03:02:59;;;;;;;;;14.67;12.67;;;;;;;;4990039;27;45371;-75
2022/08/25 03:05:24;;;;;;;;;11.00;11.00;;;;;;;;4986116;27;45603;-75
2022/08/25 03:07:49;;;;;;;;;12.00;11.00;;;;;;;;4978374;28;45362;-75
2022/08/25 03:10:17;;;;;;;;;10.67;10.67;;;;;;;;4980985;27;45544;-75
2022/08/25 03:12:44;;;;;;;;;13.00;13.00;;;;;;;;4979616;27;45483;-75
2022/08/25 03:15:10;;;;;;;;;11.67;11.67;;;;;;;;4981997;28;45647;-75
2022/08/25 03:17:35;;;;;;;;;10.33;10.33;;;;;;;;4982412;28;45254;-75
2022/08/25 03:20:00;;;;;;;;;12.33;11.33;;;;;;;;4984456;28;45368;-75
2022/08/25 03:22:26;;;;;;;;;12.33;9.00;;;;;;;;4984464;27;45328;-75
2022/08/25 03:24:51;;;;;;;;;13.67;12.00;;;;;;;;4985831;27;45450;-75
2022/08/25 03:27:16;;;;;;;;;12.33;10.00;;;;;;;;4996241;27;46112;-75
2022/08/25 03:29:41;;;;;;;;;8.67;7.00;;;;;;;;4989416;27;45417;-74
2022/08/25 03:32:07;;;;;;;;;12.33;12.33;;;;;;;;4988225;27;45279;-74
2022/08/25 03:34:32;;;;;;;;;10.33;10.33;;;;;;;;5012145;27;45427;-74
2022/08/25 03:36:57;;;;;;;;;10.33;10.00;;;;;;;;4980814;28;45615;-75
2022/08/25 03:39:23;;;;;;;;;11.33;11.33;;;;;;;;4984478;28;45347;-74
2022/08/25 03:41:50;;;;;;;;;12.00;12.00;;;;;;;;4986116;27;45332;-74
2022/08/25 03:44:16;;;;;;;;;12.33;12.00;;;;;;;;4990997;28;45320;-74
2022/08/25 03:46:44;;;;;;;;;12.33;12.33;;;;;;;;4985095;28;45358;-74
2022/08/25 03:49:10;;;;;;;;;11.67;11.00;;;;;;;;4990259;27;45363;-75
2022/08/25 03:51:39;;;;;;;;;10.67;9.33;;;;;;;;4985776;28;45380;-74
2022/08/25 03:54:04;;;;;;;;;13.33;11.67;;;;;;;;4990365;28;45468;-74
2022/08/25 03:56:30;;;;;;;;;9.33;9.33;;;;;;;;4988003;28;45323;-75
2022/08/25 03:58:55;;;;;;;;;11.67;10.00;;;;;;;;4988477;27;45306;-75
2022/08/25 04:01:21;;;;;;;;;12.33;11.67;;;;;;;;4978227;27;45291;-75
2022/08/25 04:03:47;;;;;;;;;11.67;11.00;;;;;;;;4978270;28;45530;-75
2022/08/25 04:06:12;;;;;;;;;10.00;8.67;;;;;;;;4978434;28;45331;-75
2022/08/25 04:08:37;;;;;;;;;11.00;11.00;;;;;;;;4979493;28;45259;-75
2022/08/25 04:11:10;;;;;;;;;12.67;11.33;;;;;;;;4979688;28;45303;-75
2022/08/25 04:13:36;;;;;;;;;10.67;10.67;;;;;;;;4979964;27;45362;-75
2022/08/25 04:16:02;;;;;;;;;12.67;11.67;;;;;;;;4992016;27;45432;-75
2022/08/25 04:18:29;;;;;;;;;10.67;8.00;;;;;;;;4991055;28;45280;-75
2022/08/25 04:21:00;;;;;;;;;9.00;9.00;;;;;;;;4982700;28;45362;-75
2022/08/25 04:23:25;;;;;;;;;12.00;12.00;;;;;;;;4991477;27;45407;-75
2022/08/25 04:25:51;;;;;;;;;11.67;10.00;;;;;;;;4977155;28;45390;-75
2022/08/25 04:28:16;;;;;;;;;10.33;10.00;;;;;;;;4988519;28;45255;-75
2022/08/25 04:30:42;;;;;;;;;13.00;13.00;;;;;;;;4989678;27;45314;-75
2022/08/25 04:33:07;;;;;;;;;13.00;12.00;;;;;;;;4989511;28;46128;-75
2022/08/25 04:35:32;;;;;;;;;14.33;11.00;;;;;;;;4983355;27;45410;-75
2022/08/25 04:37:58;;;;;;;;;11.67;10.67;;;;;;;;4992899;28;45385;-75
2022/08/25 04:40:24;;;;;;;;;9.00;9.00;;;;;;;;4980567;28;45934;-75
2022/08/25 04:42:50;;;;;;;;;12.33;12.33;;;;;;;;4994147;28;45235;-75
2022/08/25 04:45:15;;;;;;;;;12.00;12.00;;;;;;;;4985220;28;47263;-75
2022/08/25 04:47:40;;;;;;;;;10.00;10.00;;;;;;;;4981632;27;45437;-75
2022/08/25 04:50:07;;;;;;;;;12.00;12.00;;;;;;;;4983578;27;45304;-75
2022/08/25 04:52:32;;;;;;;;;10.33;9.00;;;;;;;;4991262;27;45568;-74
2022/08/25 04:54:58;;;;;;;;;11.33;11.33;;;;;;;;4983817;27;45237;-74
2022/08/25 04:57:23;;;;;;;;;12.33;11.67;;;;;;;;4986993;27;45229;-75
2022/08/25 04:59:48;;;;;;;;;13.00;11.67;;;;;;;;4982897;27;45662;-75
2022/08/25 05:02:14;;;;;;;;;12.33;12.00;;;;;;;;4982000;27;45649;-75
2022/08/25 05:04:39;;;;;;;;;16.33;13.00;;;;;;;;4985560;28;45296;-75
2022/08/25 05:07:04;;;;;;;;;11.67;11.67;;;;;;;;4983786;27;45617;-75
2022/08/25 05:09:30;;;;;;;;;11.00;11.00;;;;;;;;4985177;28;45351;-75
2022/08/25 05:11:55;;;;;;;;;12.33;11.67;;;;;;;;4977646;28;45381;-75
2022/08/25 05:14:21;;;;;;;;;12.00;12.00;;;;;;;;4978142;28;45310;-74
2022/08/25 05:16:47;;;;;;;;;14.33;14.33;;;;;;;;4982489;27;45358;-77
2022/08/25 05:19:12;;;;;;;;;12.33;12.33;;;;;;;;4977243;28;45501;-74
2022/08/25 05:21:40;;;;;;;;;16.67;14.33;;;;;;;;4983829;28;45445;-74
2022/08/25 05:24:06;;;;;;;;;15.67;15.00;;;;;;;;4988486;28;45562;-75
2022/08/25 05:26:33;;;;;;;;;17.33;17.33;;;;;;;;4986336;28;46241;-76
2022/08/25 05:29:00;;;;;;;;;19.33;16.33;;;;;;;;4984711;28;45227;-76
2022/08/25 05:31:25;;;;;;;;;14.67;14.67;;;;;;;;4988605;28;45511;-75
2022/08/25 05:33:51;;;;;;;;;19.00;18.00;;;;;;;;4988897;27;47494;-75
2022/08/25 05:36:18;;;;;;;;;18.00;18.00;;;;;;;;4988828;28;45418;-75
2022/08/25 05:38:43;;;;;;;;;21.67;20.67;;;;;;;;4989090;28;45400;-75
2022/08/25 05:41:10;;;;;;;;;19.00;18.00;;;;;;;;4987784;27;46165;-75
2022/08/25 05:43:39;;;;;;;;;19.00;19.00;;;;;;;;4990645;28;47291;-74
2022/08/25 05:46:04;;;;;;;;;20.00;19.33;;;;;;;;4980722;27;45286;-74
2022/08/25 05:48:29;;;;;;;;;19.33;17.33;;;;;;;;4981659;27;45408;-74
2022/08/25 05:50:56;;;;;;;;;15.67;15.67;;;;;;;;4985768;27;45795;-74
2022/08/25 05:53:22;;;;;;;;;21.67;19.00;;;;;;;;4981004;28;47283;-75
2022/08/25 05:55:48;;;;;;;;;15.67;15.67;;;;;;;;4990884;27;45358;-74
2022/08/25 05:58:13;;;;;;;;;19.00;16.67;;;;;;;;4997905;27;45325;-78
2022/08/25 06:00:38;;;;;;;;;18.33;17.67;;;;;;;;4982367;27;45475;-79
2022/08/25 06:03:04;;;;;;;;;17.67;17.00;;;;;;;;4983889;28;45433;-79
2022/08/25 06:05:29;;;;;;;;;23.00;18.67;;;;;;;;4986101;27;45387;-78
2022/08/25 06:07:55;;;;;;;;;17.67;16.67;;;;;;;;4980875;28;45274;-79
2022/08/25 06:10:20;;;;;;;;;16.67;15.33;;;;;;;;4980544;28;45609;-78
2022/08/25 06:12:46;;;;;;;;;22.67;18.33;;;;;;;;4988676;27;45409;-78
2022/08/25 06:15:13;;;;;;;;;20.33;16.67;;;;;;;;4979125;27;45639;-78
2022/08/25 06:17:40;;;;;;;;;17.33;15.67;;;;;;;;4982305;28;45296;-79
2022/08/25 06:20:09;;;;;;;;;18.67;15.67;;;;;;;;4986306;27;46115;-77
2022/08/25 06:22:36;;;;;;;;;17.00;15.00;;;;;;;;4988832;27;45370;-78
2022/08/25 06:25:01;;;;;;;;;16.33;15.67;;;;;;;;4988442;27;45406;-80
2022/08/25 06:27:26;;;;;;;;;14.00;12.33;;;;;;;;4996976;27;45122;-77
2022/08/25 06:29:52;;;;;;;;;14.33;14.33;;;;;;;;4990621;27;45454;-77
2022/08/25 06:32:17;;;;;;;;;17.33;14.67;;;;;;;;4995388;28;47239;-76
2022/08/25 06:34:42;;;;;;;;;11.67;11.67;;;;;;;;4994394;27;45333;-80
2022/08/25 06:37:07;;;;;;;;;13.00;13.00;;;;;;;;4990151;27;45346;-80
2022/08/25 06:39:33;;;;;;;;;18.00;15.00;;;;;;;;4984527;28;45393;-77
2022/08/25 06:41:58;;;;;;;;;19.00;18.00;;;;;;;;4986886;27;47111;-77
2022/08/25 06:44:25;;;;;;;;;14.00;14.00;;;;;;;;4993467;27;45539;-78
2022/08/25 06:46:50;;;;;;;;;14.00;14.00;;;;;;;;4992043;27;45558;-78
2022/08/25 06:49:15;;;;;;;;;20.00;17.33;;;;;;;;4991569;27;45333;-78
2022/08/25 06:51:41;;;;;;;;;19.00;17.00;;;;;;;;4993431;28;45363;-77
2022/08/25 06:54:06;;;;;;;;;16.33;15.33;;;;;;;;4994782;28;45354;-77
2022/08/25 06:56:32;;;;;;;;;20.67;18.67;;;;;;;;4986216;28;45524;-77
2022/08/25 06:58:59;;;;;;;;;13.67;13.33;;;;;;;;4988009;27;45517;-77
2022/08/25 07:01:25;;;;;;;;;15.67;14.67;;;;;;;;4979152;27;46243;-77
2022/08/25 07:03:51;;;;;;;;;18.67;16.00;;;;;;;;4990353;27;45367;-77
2022/08/25 07:06:19;;;;;;;;;15.33;11.00;;;;;;;;4980722;27;45205;-76
2022/08/25 07:08:46;;;;;;;;;14.00;13.00;;;;;;;;4984923;27;45369;-76
2022/08/25 07:11:12;;;;;;;;;18.67;15.33;;;;;;;;4978908;28;46862;-77
2022/08/25 07:13:37;;;;;;;;;14.67;14.67;;;;;;;;4989968;28;45970;-77
2022/08/25 07:16:04;;;;;;;;;16.67;16.00;;;;;;;;4982538;28;45256;-74
2022/08/25 07:18:29;;;;;;;;;17.00;16.00;;;;;;;;4990849;28;45484;-72
2022/08/25 07:20:55;;;;;;;;;17.00;16.00;;;;;;;;4985667;27;46401;-71
2022/08/25 07:23:21;;;;;;;;;21.00;18.67;;;;;;;;4990527;28;45223;-71
2022/08/25 07:25:46;;;;;;;;;17.67;16.33;;;;;;;;4990141;28;45212;-74
2022/08/25 07:28:13;;;;;;;;;18.75;15.75;;;;;;;;4993909;27;45146;-77
2022/08/25 07:30:38;;;;;;;;;21.00;17.00;;;;;;;;4980740;27;45323;-75
2022/08/25 07:33:03;;;;;;;;;12.75;12.25;;;;;;;;4980622;27;45206;-76
2022/08/25 07:35:31;;;;;;;;;20.75;17.50;;;;;;;;4985800;27;45274;-73
2022/08/25 07:37:56;;;;;;;;;17.50;15.50;;;;;;;;4987319;28;45288;-73
2022/08/25 07:40:25;;;;;;;;;17.75;16.00;;;;;;;;4981074;28;46045;-72
2022/08/25 07:42:52;;;;;;;;;20.75;16.50;;;;;;;;4990092;27;45229;-73
2022/08/25 07:45:18;;;;;;;;;20.75;17.25;;;;;;;;4981303;27;45293;-73
2022/08/25 07:47:43;;;;;;;;;8.00;7.00;;;;;;;;4991796;28;45269;-70
2022/08/25 07:50:11;;;;;;;;;19.00;15.50;;;;;;;;4990802;27;46433;-71
2022/08/25 07:52:36;;;;;;;;;17.25;14.75;;;;;;;;4993677;28;45362;-71
2022/08/25 07:55:01;;;;;;;;;22.75;17.50;;;;;;;;4987813;27;45618;-71
2022/08/25 07:57:28;;;;;;;;;16.25;15.75;;;;;;;;4997383;27;45546;-71
2022/08/25 07:59:53;;;;;;;;;13.25;12.25;;;;;;;;4985778;27;46104;-71
2022/08/25 08:02:19;;;;;;;;;16.00;15.50;;;;;;;;4978934;27;45295;-71
2022/08/25 08:04:45;;;;;;;;;12.25;11.50;;;;;;;;4982376;28;45513;-72
2022/08/25 08:07:10;;;;;;;;;14.25;13.50;;;;;;;;4984062;27;45736;-71
2022/08/25 08:09:36;;;;;;;;;18.50;17.25;;;;;;;;4986238;27;45808;-71
2022/08/25 08:12:02;;;;;;;;;16.25;13.00;;;;;;;;4986401;27;45287;-71
2022/08/25 08:14:27;;;;;;;;;11.00;11.00;;;;;;;;4988712;28;45628;-71
2022/08/25 08:16:52;;;;;;;;;13.75;13.75;;;;;;;;4976858;28;45367;-71
2022/08/25 08:19:18;;;;;;;;;17.75;15.25;;;;;;;;4980878;28;46970;-71
2022/08/25 08:21:43;;;;;;;;;12.50;12.50;;;;;;;;4980868;28;45457;-71
2022/08/25 08:24:08;;;;;;;;;19.00;15.75;;;;;;;;4979284;28;45542;-71
2022/08/25 08:26:33;;;;;;;;;17.50;16.25;;;;;;;;4984454;28;45645;-70
2022/08/25 08:28:59;;;;;;;;;14.25;13.25;;;;;;;;4987874;27;48009;-70
2022/08/25 08:31:25;;;;;;;;;18.00;16.50;;;;;;;;4988646;28;45389;-70
2022/08/25 08:33:51;;;;;;;;;15.50;13.50;;;;;;;;4996509;27;45594;-71
2022/08/25 08:36:17;;;;;;;;;15.25;15.25;;;;;;;;4982712;27;46082;-71
2022/08/25 08:38:43;;;;;;;;;14.75;14.50;;;;;;;;4984708;27;47892;-74
2022/08/25 08:44:26;;;;;;;;;15.75;14.25;;;;;;;;4988879;27;47032;-74
2022/08/25 08:46:51;;;;;;;;;14.00;13.00;;;;;;;;4987440;28;45412;-75
2022/08/25 08:49:36;;;;;;;;;17.25;15.50;;;;;;;;4991799;27;45501;-75
2022/08/25 08:52:02;;;;;;;;;13.00;12.40;;;;;;;;4977167;28;45220;-75
2022/08/25 08:54:29;;;;;;;;;12.25;12.25;;;;;;;;4978026;28;45452;-75
2022/08/25 08:57:01;;;;;;;;;14.40;13.80;;;;;;;;4977214;27;45391;-75
2022/08/25 08:59:30;;;;;;;;;14.60;12.00;;;;;;;;4990331;27;45377;-75
2022/08/25 09:01:58;;;;;;;;;13.00;11.40;;;;;;;;4986137;28;45207;-75
2022/08/25 09:04:59;;;;;;;;;12.40;11.60;;;;;;;;4982349;28;45569;-74
2022/08/25 09:07:29;;;;;;;;;15.00;12.20;;;;;;;;4952924;28;45463;-74
2022/08/25 09:09:55;;;;;;;;;15.00;13.60;;;;;;;;4973303;28;46118;-74
2022/08/25 09:12:40;;;;;;;;;13.00;12.20;;;;;;;;4982490;28;45354;-74
2022/08/25 09:15:22;;;;;;;;;15.60;12.60;;;;;;;;4985499;28;45357;-73
2022/08/25 09:18:00;;;;;;;;;13.00;11.60;;;;;;;;4982015;28;45314;-74
2022/08/25 09:20:43;;;;;;;;;7.80;7.80;;;;;;;;4987829;28;47522;-73
2022/08/25 09:23:21;;;;;;;;;11.20;9.60;;;;;;;;4991670;27;45884;-73
2022/08/25 09:25:55;;;;;;;;;11.00;11.00;;;;;;;;4994704;28;45397;-73
2022/08/25 09:28:39;;;;;;;;;11.00;11.00;;;;;;;;4996551;28;45270;-73
2022/08/25 09:31:12;;;;;;;;;10.60;9.40;;;;;;;;4989323;27;45390;-73
2022/08/25 09:33:37;;;;;;;;;12.00;12.00;;;;;;;;4997698;27;45477;-73
2022/08/25 09:36:03;;;;;;;;;11.75;10.50;;;;;;;;4992793;27;45384;-73
2022/08/25 09:38:30;;;;;;;;;11.75;9.75;;;;;;;;4983942;27;45516;-73
2022/08/25 09:40:56;;;;;;;;;11.40;9.60;;;;;;;;4985576;27;45499;-73
2022/08/25 09:43:28;;;;;;;;;9.60;9.20;;;;;;;;4995139;27;45522;-73
2022/08/25 09:46:13;;;;;;;;;8.80;8.80;;;;;;;;4991934;27;45276;-73
2022/08/25 09:48:47;;;;;;;;;11.40;10.20;;;;;;;;4988632;27;45281;-73
2022/08/25 09:51:22;;;;;;;;;8.40;8.40;;;;;;;;4981009;27;46160;-73
2022/08/25 09:53:53;;;;;;;;;6.00;6.00;;;;;;;;4983641;27;45482;-73
2022/08/25 09:56:20;;;;;;;;;7.40;7.40;;;;;;;;4978941;27;45374;-73
2022/08/25 09:58:45;;;;;;;;;9.00;9.00;;;;;;;;4985555;28;45639;-73
2022/08/25 10:01:11;;;;;;;;;8.25;8.25;;;;;;;;4979563;27;45996;-73
2022/08/25 10:03:37;;;;;;;;;10.40;8.80;;;;;;;;4985937;27;45347;-74
2022/08/25 10:06:04;;;;;;;;;9.25;8.75;;;;;;;;4992028;27;45346;-73
2022/08/25 10:08:38;;;;;;;;;7.40;7.40;;;;;;;;4994450;27;45449;-73
2022/08/25 10:11:07;;;;;;;;;8.60;8.20;;;;;;;;4989470;27;45425;-74
2022/08/25 10:13:43;;;;;;;;;6.40;6.40;;;;;;;;4988456;27;45336;-74
2022/08/25 10:16:11;;;;;;;;;7.40;7.40;;;;;;;;4981833;27;45377;-74
2022/08/25 10:18:37;;;;;;;;;9.20;9.20;;;;;;;;4981520;27;45444;-73
2022/08/25 10:21:02;;;;;;;;;9.00;7.75;;;;;;;;4982910;28;45448;-74
2022/08/25 10:23:28;;;;;;;;;8.25;7.25;;;;;;;;4983202;27;45470;-74
2022/08/25 10:25:53;;;;;;;;;8.00;7.25;;;;;;;;4986567;28;45391;-74
2022/08/25 10:28:37;;;;;;;;;7.50;6.75;;;;;;;;4987273;28;45366;-73
2022/08/25 10:31:24;;;;;;;;;6.20;6.20;;;;;;;;4990992;28;45473;-74
2022/08/25 10:34:08;;;;;;;;;9.80;8.60;;;;;;;;4991075;27;45628;-74
2022/08/25 10:36:36;;;;;;;;;7.60;7.60;;;;;;;;4997925;27;45441;-74
2022/08/25 10:39:02;;;;;;;;;7.80;7.80;;;;;;;;4987722;28;45441;-74
2022/08/25 10:41:54;;;;;;;;;7.20;7.00;;;;;;;;4988015;27;45459;-74
2022/08/25 10:47:12;;;;;;;;;7.60;7.60;;;;;;;;4991238;27;45266;-74
2022/08/25 10:49:43;;;;;;;;;9.00;9.00;;;;;;;;4981976;27;45494;-75
2022/08/25 10:52:20;;;;;;;;;9.00;9.00;;;;;;;;4992960;27;45468;-75
2022/08/25 10:54:48;;;;;;;;;9.40;9.40;;;;;;;;4987026;27;45468;-75
2022/08/25 10:57:29;;;;;;;;;10.00;8.40;;;;;;;;4986203;27;45744;-75
2022/08/25 11:00:09;;;;;;;;;9.00;8.00;;;;;;;;4990471;28;45455;-75
2022/08/25 11:02:47;;;;;;;;;10.80;9.00;;;;;;;;4980571;28;47504;-75
2022/08/25 11:05:12;;;;;;;;;8.00;8.00;;;;;;;;4989349;27;45428;-75
2022/08/25 11:07:41;;;;;;;;;10.00;9.00;;;;;;;;4996857;27;45358;-75
2022/08/25 11:10:09;;;;;;;;;10.00;8.80;;;;;;;;4994202;28;45513;-75
2022/08/25 11:12:38;;;;;;;;;9.40;9.40;;;;;;;;4978204;28;46178;-75
2022/08/25 11:15:08;;;;;;;;;8.40;7.20;;;;;;;;4984721;28;45420;-74
2022/08/25 11:17:39;;;;;;;;;9.20;9.20;;;;;;;;4979632;27;45389;-75
2022/08/25 11:20:16;;;;;;;;;8.20;8.20;;;;;;;;4988456;27;45959;-74
2022/08/25 11:22:43;;;;;;;;;10.00;8.00;;;;;;;;4995141;27;46129;-75
2022/08/25 11:25:21;;;;;;;;;7.00;7.00;;;;;;;;4988153;28;45468;-75
2022/08/25 11:27:51;;;;;;;;;6.80;6.80;;;;;;;;4986892;28;45241;-74
2022/08/25 11:30:17;;;;;;;;;7.40;7.40;;;;;;;;4990023;27;45492;-74
2022/08/25 11:32:45;;;;;;;;;8.20;7.40;;;;;;;;4981834;28;46697;-74
2022/08/25 11:35:12;;;;;;;;;9.20;7.00;;;;;;;;4990375;27;45397;-74
2022/08/25 11:37:43;;;;;;;;;8.20;8.20;;;;;;;;4984152;28;45358;-75
2022/08/25 11:40:10;;;;;;;;;8.00;8.00;;;;;;;;4984473;27;45377;-74
2022/08/25 11:42:41;;;;;;;;;9.20;7.60;;;;;;;;4985524;27;45322;-74
2022/08/25 11:45:19;;;;;;;;;6.20;6.20;;;;;;;;4990221;27;45404;-75
2022/08/25 11:47:53;;;;;;;;;7.80;7.80;;;;;;;;4994032;27;45454;-74
2022/08/25 11:50:21;;;;;;;;;7.60;7.60;;;;;;;;4988561;28;46381;-74
2022/08/25 11:52:50;;;;;;;;;7.60;7.60;;;;;;;;4984121;27;45673;-75
2022/08/25 11:55:38;;;;;;;;;7.60;7.60;;;;;;;;4986231;27;45304;-75
2022/08/25 11:58:22;;;;;;;;;8.60;6.80;;;;;;;;4992319;28;45494;-75
2022/08/25 12:00:47;;;;;;;;;8.40;6.60;;;;;;;;4988555;28;45501;-75
2022/08/25 12:03:31;;;;;;;;;10.25;8.25;;;;;;;;4995865;28;45280;-75
2022/08/25 12:06:18;;;;;;;;;9.40;6.60;;;;;;;;4987962;28;45405;-75
2022/08/25 12:08:58;;;;;;;;;8.60;7.20;;;;;;;;4977770;27;45454;-74
2022/08/25 12:11:41;;;;;;;;;7.80;7.80;;;;;;;;4991368;27;45402;-75
2022/08/25 12:14:12;;;;;;;;;8.00;7.20;;;;;;;;4987440;27;46442;-74
2022/08/25 12:16:40;;;;;;;;;6.60;6.60;;;;;;;;4994465;27;45546;-74
2022/08/25 12:19:25;;;;;;;;;7.80;7.20;;;;;;;;4991785;28;45489;-74
2022/08/25 12:21:51;;;;;;;;;4.80;4.80;;;;;;;;4990858;28;46790;-74
2022/08/25 12:24:20;;;;;;;;;4.00;3.60;;;;;;;;4991432;28;48098;-74
2022/08/25 12:27:11;;;;;;;;;7.40;7.40;;;;;;;;4994740;28;45215;-74
2022/08/25 12:29:41;;;;;;;;;7.00;7.00;;;;;;;;4975901;28;45442;-74
2022/08/25 12:32:25;;;;;;;;;6.00;6.00;;;;;;;;4996466;27;45953;-73
2022/08/25 12:34:56;;;;;;;;;6.80;6.20;;;;;;;;4989807;27;45574;-75
2022/08/25 12:37:23;;;;;;;;;5.00;5.00;;;;;;;;4980944;28;45316;-74
2022/08/25 12:39:48;;;;;;;;;7.20;7.20;;;;;;;;4989896;28;45450;-73
2022/08/25 12:42:29;;;;;;;;;6.75;6.75;;;;;;;;4994009;27;45574;-74
2022/08/25 12:45:30;;;;;;;;;8.60;8.00;;;;;;;;4986263;28;47081;-74
2022/08/25 12:48:15;;;;;;;;;5.40;5.40;;;;;;;;4996120;28;46605;-73
2022/08/25 12:50:41;;;;;;;;;6.60;6.60;;;;;;;;4990360;27;46466;-73
2022/08/25 12:53:19;;;;;;;;;6.60;6.00;;;;;;;;4996593;28;45579;-74
2022/08/25 12:55:50;;;;;;;;;7.20;7.20;;;;;;;;4991411;28;46229;-73
2022/08/25 12:58:15;;;;;;;;;8.60;6.20;;;;;;;;4998116;27;46318;-74
2022/08/25 13:00:44;;;;;;;;;6.50;6.00;;;;;;;;4992215;28;45487;-74
2022/08/25 13:03:24;;;;;;;;;5.80;5.20;;;;;;;;4983656;28;45652;-74
2022/08/25 13:06:08;;;;;;;;;7.40;7.00;;;;;;;;4997167;28;45184;-74
2022/08/25 13:08:48;;;;;;;;;5.60;5.60;;;;;;;;4999326;27;45437;-74
2022/08/25 13:11:34;;;;;;;;;6.20;6.20;;;;;;;;4999138;28;45315;-74
2022/08/25 13:13:59;;;;;;;;;6.20;6.20;;;;;;;;4996392;27;45350;-74
2022/08/25 13:16:26;;;;;;;;;6.50;6.25;;;;;;;;4999786;27;46124;-74
2022/08/25 13:18:51;;;;;;;;;6.60;6.60;;;;;;;;4994946;28;45423;-74
2022/08/25 13:21:23;;;;;;;;;6.75;6.25;;;;;;;;5000017;27;45413;-74
2022/08/25 13:23:50;;;;;;;;;10.00;6.60;;;;;;;;4997559;28;45456;-74
2022/08/25 13:26:25;;;;;;;;;6.00;6.00;;;;;;;;5001601;27;46997;-74
2022/08/25 13:28:56;;;;;;;;;6.00;6.00;;;;;;;;4999945;27;45425;-74
2022/08/25 13:31:26;;;;;;;;;4.80;4.80;;;;;;;;4992585;28;45481;-74
2022/08/25 13:34:01;;;;;;;;;6.20;6.20;;;;;;;;5007187;27;45553;-75
2022/08/25 13:39:32;;;;;;;;;11.80;10.80;;;;;;;;4997159;28;45406;-74
2022/08/25 13:41:57;;;;;;;;;5.60;5.60;;;;;;;;5001035;28;45367;-75
2022/08/25 13:44:24;;;;;;;;;8.25;7.50;;;;;;;;4999938;27;45464;-74
2022/08/25 13:47:04;;;;;;;;;4.40;4.40;;;;;;;;5000897;27;46972;-75
2022/08/25 13:49:30;;;;;;;;;5.20;5.20;;;;;;;;4991952;28;45421;-75
2022/08/25 13:51:55;;;;;;;;;7.00;7.00;;;;;;;;4988884;28;45365;-75
2022/08/25 13:54:23;;;;;;;;;7.00;7.00;;;;;;;;4992394;27;45590;-75
2022/08/25 13:56:48;;;;;;;;;5.60;4.40;;;;;;;;4988778;27;47869;-75
2022/08/25 13:59:25;;;;;;;;;4.00;4.00;;;;;;;;4998416;27;45354;-75
2022/08/25 14:01:51;;;;;;;;;7.20;6.00;;;;;;;;5000584;27;45319;-75
2022/08/25 14:04:52;;;;;;;;;6.00;6.00;;;;;;;;4996049;28;45441;-75
2022/08/25 14:07:17;;;;;;;;;5.00;4.40;;;;;;;;5041323;28;48114;-75
2022/08/25 14:09:48;;;;;;;;;7.00;6.00;;;;;;;;5002858;27;45501;-75
2022/08/25 14:12:32;;;;;;;;;4.20;4.20;;;;;;;;4995070;27;45355;-75
2022/08/25 14:15:03;;;;;;;;;5.00;5.00;;;;;;;;4997925;27;46617;-75
2022/08/25 14:17:28;;;;;;;;;4.00;4.00;;;;;;;;4996804;27;45482;-74
2022/08/25 14:19:54;;;;;;;;;3.75;3.75;;;;;;;;4996284;28;45258;-74
2022/08/25 14:22:19;;;;;;;;;4.25;4.25;;;;;;;;4998200;27;45419;-73
2022/08/25 14:24:44;;;;;;;;;3.25;3.25;;;;;;;;4995330;27;46079;-74
2022/08/25 14:27:09;;;;;;;;;3.25;3.00;;;;;;;;4996797;28;45418;-75
2022/08/25 14:29:35;;;;;;;;;4.00;4.00;;;;;;;;4990860;28;45485;-75
2022/08/25 14:32:00;;;;;;;;;3.00;3.00;;;;;;;;4990886;28;45234;-74
2022/08/25 14:34:31;;;;;;;;;4.00;4.00;;;;;;;;5001388;27;45532;-75
2022/08/25 14:36:58;;;;;;;;;3.00;3.00;;;;;;;;4989991;28;45295;-74
2022/08/25 14:39:24;;;;;;;;;3.00;3.00;;;;;;;;4995166;28;45240;-74
2022/08/25 14:41:49;;;;;;;;;4.00;4.00;;;;;;;;4996515;27;45169;-74
2022/08/25 14:44:15;;;;;;;;;3.00;2.50;;;;;;;;4993282;28;45380;-73